Vandenberg AFB, California
Current Conditions -  °F | °C
As of 9:55 PM on Wednesday 26 Nov 2014 (Local Time) from KVBG Reporting Station
Clear Clear  
Wind Chill: 46°   Ceiling: Unl
Heat Index: 49°   Visibility: 10mi
Dew Point: 42°   Wind: 7mph
Humidity: 77%   Direction: 120°ESE
Pressure: 30.2"   Gusts: NA
Location:  34.7134°N, 120.557°W
Report Text: KVBG 270555Z AUTO 12006KT 10SM CLR 09/06 A3020 RMK AO2 SLP217 T00940056 10206 20089 51003 TSNO $
Loading
Personal Weather Stations






























Interactive Weather Map New forecast layout! Learn more

10-Day Weather Forecast

Advertisements
Track Severe Weather on mobile